Time;durP1;ratioP1;P1;durP2;ratioP2;P2;SDS_P1;SDS_P2;PMS_P1;PMS_P2;Temp;Humidity;BMP_temperature;BMP_pressure;BME280_temperature;BME280_humidity;BME280_pressure;Samples;Min_cycle;Max_cycle;Signal;HPM_P1;HPM_P2
2023/06/05 00:00:29;;;;;;;2.60;1.50;;;19.20;35.70;;;;;;5039613;28;20497;-49
2023/06/05 00:02:58;;;;;;;2.30;1.55;;;19.10;35.60;;;;;;5040279;28;20532;-53
2023/06/05 00:05:27;;;;;;;4.70;1.63;;;19.10;35.70;;;;;;5041571;28;20064;-56
2023/06/05 00:07:54;;;;;;;1.50;1.20;;;19.10;35.70;;;;;;5040855;28;20060;-50
2023/06/05 00:10:21;;;;;;;2.08;1.40;;;19.10;35.70;;;;;;5036388;28;20060;-50
2023/06/05 00:12:49;;;;;;;3.17;1.27;;;19.00;35.70;;;;;;5042026;28;20382;-52
2023/06/05 00:15:17;;;;;;;1.98;1.52;;;19.00;35.80;;;;;;5039514;28;21132;-54
2023/06/05 00:17:44;;;;;;;2.92;1.60;;;19.00;36.00;;;;;;5041524;28;20053;-54
2023/06/05 00:20:13;;;;;;;2.45;1.50;;;18.90;36.20;;;;;;5040155;28;20060;-49
2023/06/05 00:22:40;;;;;;;2.47;1.58;;;18.90;36.30;;;;;;5037967;28;20069;-48
2023/06/05 00:25:08;;;;;;;2.35;1.40;;;18.90;36.50;;;;;;5042224;28;20060;-53
2023/06/05 00:27:35;;;;;;;2.17;1.40;;;18.80;36.50;;;;;;5033586;28;20064;-53
2023/06/05 00:30:03;;;;;;;4.60;1.90;;;18.80;36.60;;;;;;5034593;28;20501;-51
2023/06/05 00:32:30;;;;;;;2.58;1.60;;;18.80;36.80;;;;;;5039285;28;20405;-48
2023/06/05 00:34:58;;;;;;;2.50;1.58;;;18.80;36.80;;;;;;5041211;28;20060;-48
2023/06/05 00:37:26;;;;;;;2.30;1.60;;;18.80;36.90;;;;;;5041855;28;20057;-49
2023/06/05 00:39:54;;;;;;;1.52;1.25;;;18.70;36.80;;;;;;5030838;28;20059;-46
2023/06/05 00:42:21;;;;;;;2.88;1.40;;;18.70;36.90;;;;;;5041156;28;20059;-54
2023/06/05 00:44:48;;;;;;;2.30;1.50;;;18.70;37.00;;;;;;5039812;28;20053;-53
2023/06/05 00:47:16;;;;;;;3.08;1.60;;;18.70;37.10;;;;;;5039894;28;20057;-50
2023/06/05 00:49:43;;;;;;;2.78;1.65;;;18.60;37.00;;;;;;5041062;28;20497;-46
2023/06/05 00:52:11;;;;;;;2.63;1.33;;;18.60;37.00;;;;;;5036338;28;20057;-50
2023/06/05 00:54:41;;;;;;;1.95;1.42;;;18.50;36.90;;;;;;5041221;28;20053;-53
2023/06/05 00:57:09;;;;;;;2.65;1.50;;;18.50;37.00;;;;;;5039975;28;20053;-50
2023/06/05 00:59:37;;;;;;;1.95;1.45;;;18.50;37.10;;;;;;5033447;28;20049;-54
2023/06/05 01:02:06;;;;;;;3.28;1.90;;;18.50;37.20;;;;;;5041315;28;20263;-54
2023/06/05 01:04:33;;;;;;;2.67;1.63;;;18.40;37.20;;;;;;5054084;23;20045;-46
2023/06/05 01:07:01;;;;;;;2.90;1.40;;;18.40;37.30;;;;;;5040173;28;20056;-51
2023/06/05 01:09:29;;;;;;;2.88;1.70;;;18.30;37.30;;;;;;5041731;28;20057;-50
2023/06/05 01:12:01;;;;;;;2.30;1.60;;;18.30;37.20;;;;;;5042100;28;20052;-50
2023/06/05 01:14:34;;;;;;;2.75;1.40;;;18.30;37.40;;;;;;5038942;28;20131;-50
2023/06/05 01:17:03;;;;;;;2.30;1.58;;;18.20;37.30;;;;;;5040987;28;20049;-49
2023/06/05 01:19:32;;;;;;;1.77;1.33;;;18.20;37.40;;;;;;5041810;28;20082;-44
2023/06/05 01:22:00;;;;;;;4.38;1.65;;;18.10;37.40;;;;;;5040174;28;20401;-52
2023/06/05 01:24:29;;;;;;;1.60;1.25;;;18.10;37.40;;;;;;5038268;28;20531;-52
2023/06/05 01:27:03;;;;;;;4.28;1.60;;;18.10;37.50;;;;;;5042149;28;20064;-49
2023/06/05 01:29:33;;;;;;;;;;;18.10;37.60;;;;;;5040531;28;20053;-51
2023/06/05 01:32:07;;;;;;;2.42;1.63;;;18.10;37.60;;;;;;5039679;28;19932;-51
2023/06/05 01:34:37;;;;;;;;;;;18.00;37.70;;;;;;5041729;28;20060;-43
2023/06/05 01:37:08;;;;;;;2.65;1.27;;;18.00;37.60;;;;;;5040221;28;19925;-51
2023/06/05 01:39:39;;;;;;;3.95;1.70;;;18.00;37.60;;;;;;5041617;28;20489;-47
2023/06/05 01:42:07;;;;;;;3.65;1.50;;;17.90;37.70;;;;;;5040618;28;20523;-45
2023/06/05 01:44:35;;;;;;;4.32;1.75;;;17.80;37.70;;;;;;5035166;28;20481;-46
2023/06/05 01:47:02;;;;;;;3.03;1.60;;;17.80;37.90;;;;;;5038194;28;20136;-51
2023/06/05 01:49:29;;;;;;;3.78;1.80;;;17.70;37.90;;;;;;5039676;28;20423;-44
2023/06/05 01:51:57;;;;;;;4.38;2.05;;;17.70;38.00;;;;;;5038652;28;20401;-44
2023/06/05 01:54:26;;;;;;;3.95;1.48;;;17.60;38.10;;;;;;5040361;28;20064;-44
2023/06/05 01:56:55;;;;;;;2.50;1.60;;;17.50;38.10;;;;;;5031834;28;20048;-49
2023/06/05 01:59:22;;;;;;;2.72;1.63;;;17.50;38.20;;;;;;5036085;28;20053;-51
2023/06/05 02:01:50;;;;;;;2.40;1.50;;;17.40;38.20;;;;;;5036142;28;20044;-49
2023/06/05 02:04:18;;;;;;;3.22;1.30;;;17.40;38.40;;;;;;5035702;28;20053;-50
2023/06/05 02:06:46;;;;;;;6.88;1.70;;;17.40;38.60;;;;;;5034754;28;20420;-47
2023/06/05 02:09:14;;;;;;;3.22;1.77;;;17.30;38.90;;;;;;5036817;28;20057;-49
2023/06/05 02:11:45;;;;;;;4.07;1.85;;;17.30;39.00;;;;;;5037632;28;20061;-39
2023/06/05 02:14:15;;;;;;;2.47;1.38;;;17.20;39.20;;;;;;5032922;28;20060;-43
2023/06/05 02:16:43;;;;;;;2.63;1.48;;;17.20;39.30;;;;;;5036825;28;20052;-41
2023/06/05 02:19:10;;;;;;;3.97;1.70;;;17.20;39.40;;;;;;5035898;28;20052;-40
2023/06/05 02:21:38;;;;;;;4.28;1.70;;;17.20;40.10;;;;;;5038088;28;20059;-43
2023/06/05 02:24:06;;;;;;;2.30;1.67;;;17.10;39.60;;;;;;5037731;28;20488;-42
2023/06/05 02:26:33;;;;;;;2.15;1.27;;;17.10;39.60;;;;;;5039489;28;20064;-45
2023/06/05 02:29:01;;;;;;;3.15;1.73;;;17.10;39.80;;;;;;5036471;28;20053;-42
2023/06/05 02:31:30;;;;;;;2.65;1.38;;;17.00;40.00;;;;;;5037413;28;20056;-42
2023/06/05 02:33:58;;;;;;;1.65;1.30;;;17.00;40.10;;;;;;5037003;28;20103;-41
2023/06/05 02:36:25;;;;;;;3.08;1.50;;;16.90;40.10;;;;;;5037373;28;20400;-43
2023/06/05 02:38:53;;;;;;;4.97;1.63;;;16.90;40.20;;;;;;5042541;28;20049;-43
2023/06/05 02:41:21;;;;;;;3.35;1.58;;;16.80;40.40;;;;;;5043131;28;20071;-42
2023/06/05 02:43:48;;;;;;;1.60;1.40;;;16.80;40.50;;;;;;5041706;28;20044;-41
2023/06/05 02:46:15;;;;;;;3.65;1.85;;;16.80;40.60;;;;;;5041002;28;20061;-40
2023/06/05 02:48:46;;;;;;;2.60;1.80;;;16.70;40.70;;;;;;5039085;28;20481;-39
2023/06/05 02:51:14;;;;;;;2.47;1.50;;;16.70;40.90;;;;;;5039481;28;20053;-43
2023/06/05 02:53:41;;;;;;;3.55;1.88;;;16.70;40.90;;;;;;5039740;28;20053;-43
2023/06/05 02:56:09;;;;;;;3.35;1.90;;;16.70;40.90;;;;;;5041509;28;20061;-43
2023/06/05 02:58:37;;;;;;;6.18;1.90;;;16.70;41.40;;;;;;5041779;28;20063;-43
2023/06/05 03:01:08;;;;;;;3.20;1.75;;;16.60;41.10;;;;;;5036948;28;20408;-44
2023/06/05 03:03:35;;;;;;;2.58;1.77;;;16.60;41.20;;;;;;5037395;28;20508;-44
2023/06/05 03:06:05;;;;;;;2.25;1.35;;;16.50;41.20;;;;;;5035972;28;20053;-43
2023/06/05 03:08:33;;;;;;;2.75;1.70;;;16.50;41.30;;;;;;5040387;28;20056;-43
2023/06/05 03:11:01;;;;;;;3.28;1.70;;;16.50;41.40;;;;;;5041405;28;20063;-39
2023/06/05 03:13:28;;;;;;;2.63;1.70;;;16.50;41.40;;;;;;5041346;28;20060;-45
2023/06/05 03:15:57;;;;;;;2.63;1.77;;;16.40;41.30;;;;;;5039390;28;20049;-40
2023/06/05 03:18:25;;;;;;;2.67;1.83;;;16.40;41.30;;;;;;5038259;28;20498;-42
2023/06/05 03:20:54;;;;;;;2.75;1.60;;;16.40;41.30;;;;;;5040147;28;20060;-43
2023/06/05 03:23:24;;;;;;;3.67;1.60;;;16.40;41.30;;;;;;5040313;28;20451;-51
2023/06/05 03:25:52;;;;;;;2.50;1.63;;;16.40;41.40;;;;;;5041812;28;20049;-48
2023/06/05 03:28:20;;;;;;;6.75;1.65;;;16.30;41.40;;;;;;5038340;28;20060;-50
2023/06/05 03:30:48;;;;;;;3.15;1.52;;;16.30;41.60;;;;;;5039501;28;20053;-45
2023/06/05 03:33:17;;;;;;;4.30;1.88;;;16.30;41.60;;;;;;5036835;28;20049;-47
2023/06/05 03:35:45;;;;;;;7.38;1.83;;;16.20;41.60;;;;;;5039619;28;20487;-49
2023/06/05 03:38:13;;;;;;;1.75;1.45;;;16.20;41.50;;;;;;5036757;28;20064;-45
2023/06/05 03:40:42;;;;;;;5.93;1.83;;;16.20;41.60;;;;;;5039493;28;20982;-49
2023/06/05 03:43:09;;;;;;;3.05;1.83;;;16.20;41.80;;;;;;5039521;28;20052;-48
2023/06/05 03:45:38;;;;;;;2.33;1.58;;;16.20;41.90;;;;;;5038482;28;20045;-52
2023/06/05 03:48:06;;;;;;;3.00;1.88;;;16.10;41.80;;;;;;5037838;28;21499;-48
2023/06/05 03:50:38;;;;;;;2.92;1.58;;;16.10;41.90;;;;;;5037147;28;20049;-43
2023/06/05 03:53:08;;;;;;;2.75;1.55;;;16.10;42.00;;;;;;5037669;28;20053;-53
2023/06/05 03:55:41;;;;;;;3.33;1.60;;;16.10;42.00;;;;;;5037794;28;20048;-47
2023/06/05 03:58:13;;;;;;;2.88;1.83;;;16.10;42.00;;;;;;5035985;28;20057;-49
2023/06/05 04:00:42;;;;;;;3.55;2.05;;;16.10;42.20;;;;;;5038756;28;20049;-47
2023/06/05 04:03:10;;;;;;;1.80;1.42;;;16.10;42.30;;;;;;5036428;28;20056;-51
2023/06/05 04:05:38;;;;;;;2.83;1.70;;;16.00;42.40;;;;;;5032803;28;20060;-49
2023/06/05 04:08:05;;;;;;;3.47;1.58;;;16.00;42.50;;;;;;5035131;28;20504;-51
2023/06/05 04:10:32;;;;;;;3.60;1.63;;;16.00;42.60;;;;;;5041019;28;20055;-51
2023/06/05 04:13:00;;;;;;;1.98;1.38;;;16.00;42.80;;;;;;5039780;28;20045;-53
2023/06/05 04:15:29;;;;;;;3.30;1.52;;;16.00;42.80;;;;;;5038543;28;20057;-52
2023/06/05 04:17:56;;;;;;;2.58;1.60;;;16.00;42.90;;;;;;5034123;28;20053;-46
2023/06/05 04:20:24;;;;;;;3.28;1.90;;;16.00;43.00;;;;;;5041234;28;20059;-49
2023/06/05 04:22:51;;;;;;;3.85;1.95;;;16.00;43.10;;;;;;5036434;28;20057;-50
2023/06/05 04:25:18;;;;;;;3.15;1.52;;;16.00;43.10;;;;;;5043363;28;20056;-50
2023/06/05 04:27:48;;;;;;;3.38;2.10;;;15.90;42.90;;;;;;5042658;28;20064;-51
2023/06/05 04:30:15;;;;;;;2.60;1.50;;;15.90;42.70;;;;;;5040987;28;20060;-47
2023/06/05 04:32:54;;;;;;;5.85;2.78;;;15.90;42.80;;;;;;5041796;28;20060;-40
2023/06/05 04:35:21;;;;;;;6.60;2.95;;;15.90;43.00;;;;;;5041589;28;20496;-44
2023/06/05 04:37:50;;;;;;;6.88;2.60;;;15.80;43.30;;;;;;5040647;28;20485;-37
2023/06/05 04:40:19;;;;;;;4.15;1.73;;;15.80;43.40;;;;;;5040645;28;20067;-39
2023/06/05 04:42:46;;;;;;;3.03;1.88;;;15.90;43.60;;;;;;5042727;28;20060;-43
2023/06/05 04:45:16;;;;;;;3.13;1.77;;;15.80;43.80;;;;;;5040723;28;20688;-42
2023/06/05 04:47:45;;;;;;;2.55;1.80;;;15.80;43.90;;;;;;5041438;28;20056;-44
2023/06/05 04:50:24;;;;;;;2.88;1.55;;;15.80;44.50;;;;;;5042173;28;20143;-42
2023/06/05 04:52:52;;;;;;;1.80;1.48;;;15.80;44.20;;;;;;5040681;28;20423;-38
2023/06/05 04:55:19;;;;;;;7.85;1.90;;;15.80;44.10;;;;;;5040874;28;20492;-42
2023/06/05 04:57:48;;;;;;;2.65;1.65;;;15.80;44.30;;;;;;5041838;28;20052;-37
2023/06/05 05:00:16;;;;;;;3.90;2.00;;;15.80;44.40;;;;;;5041196;28;20057;-43
2023/06/05 05:02:44;;;;;;;2.55;1.70;;;15.80;44.60;;;;;;5041179;28;20056;-41
2023/06/05 05:05:13;;;;;;;2.78;1.73;;;15.90;44.80;;;;;;5041382;28;20408;-39
2023/06/05 05:07:41;;;;;;;2.67;1.90;;;15.80;44.80;;;;;;5041208;28;20103;-44
2023/06/05 05:10:09;;;;;;;2.80;1.45;;;15.90;44.90;;;;;;5040234;28;20071;-44
2023/06/05 05:12:37;;;;;;;4.57;2.38;;;15.90;45.00;;;;;;5042522;28;20067;-44
2023/06/05 05:15:06;;;;;;;4.10;2.25;;;15.90;45.10;;;;;;5040537;28;20551;-39
2023/06/05 05:17:33;;;;;;;3.00;2.00;;;15.90;45.60;;;;;;5042135;28;20053;-46
2023/06/05 05:20:03;;;;;;;4.32;2.30;;;15.90;45.50;;;;;;5041496;28;20053;-41
2023/06/05 05:22:30;;;;;;;4.18;1.95;;;15.90;46.00;;;;;;5037107;28;20404;-40
2023/06/05 05:24:58;;;;;;;4.82;2.00;;;15.90;46.10;;;;;;5041297;28;20052;-43
2023/06/05 05:27:25;;;;;;;4.38;2.15;;;15.90;46.10;;;;;;5040836;28;20057;-42
2023/06/05 05:29:52;;;;;;;3.67;2.35;;;15.90;46.30;;;;;;5041711;28;20080;-40
2023/06/05 05:32:20;;;;;;;5.20;2.10;;;15.90;46.50;;;;;;5040212;28;20052;-43
2023/06/05 05:34:47;;;;;;;4.13;2.28;;;15.90;46.60;;;;;;5040678;28;20511;-43
2023/06/05 05:37:16;;;;;;;4.03;2.22;;;15.90;46.90;;;;;;5037490;28;20049;-43
2023/06/05 05:39:44;;;;;;;5.40;2.47;;;15.90;46.90;;;;;;5040395;28;20683;-39
2023/06/05 05:42:11;;;;;;;6.68;2.53;;;15.90;47.20;;;;;;5038851;28;20401;-53
2023/06/05 05:44:41;;;;;;;4.43;2.92;;;15.90;47.30;;;;;;5039826;28;20079;-50
2023/06/05 05:47:09;;;;;;;4.78;2.50;;;16.00;47.40;;;;;;5040085;28;20057;-53
2023/06/05 05:49:37;;;;;;;6.13;2.60;;;16.00;47.30;;;;;;5040027;28;20053;-47
2023/06/05 05:52:04;;;;;;;3.13;2.10;;;16.00;47.50;;;;;;5035224;28;20057;-49
2023/06/05 05:54:33;;;;;;;6.13;2.72;;;16.00;47.60;;;;;;5040796;28;20053;-48
2023/06/05 05:57:00;;;;;;;5.05;2.83;;;16.10;47.70;;;;;;5040753;28;20063;-50
2023/06/05 05:59:27;;;;;;;6.78;2.40;;;16.10;47.70;;;;;;5042208;28;20390;-50
2023/06/05 06:01:56;;;;;;;3.10;2.30;;;16.20;47.60;;;;;;5034779;28;20420;-45
2023/06/05 06:04:23;;;;;;;5.90;2.88;;;16.20;47.70;;;;;;5041180;28;20067;-52
2023/06/05 06:06:52;;;;;;;3.55;2.53;;;16.30;48.10;;;;;;5037905;28;20408;-51
2023/06/05 06:09:19;;;;;;;4.60;2.78;;;16.30;48.20;;;;;;5040436;28;20056;-47
2023/06/05 06:11:48;;;;;;;4.47;2.72;;;16.40;48.40;;;;;;5042526;28;20048;-43
2023/06/05 06:14:15;;;;;;;6.80;2.75;;;16.40;48.50;;;;;;5045697;28;20412;-49
2023/06/05 06:16:43;;;;;;;6.97;3.10;;;16.50;48.20;;;;;;5043063;28;20053;-46
2023/06/05 06:19:14;;;;;;;9.27;3.17;;;16.60;48.00;;;;;;5041218;28;21496;-47
2023/06/05 06:21:41;;;;;;;4.38;2.88;;;16.60;47.90;;;;;;5043436;28;20057;-49
2023/06/05 06:24:08;;;;;;;12.73;3.55;;;16.60;47.90;;;;;;5045260;28;20056;-47
2023/06/05 06:26:38;;;;;;;8.38;2.70;;;16.60;47.70;;;;;;5043499;28;20053;-49
2023/06/05 06:29:06;;;;;;;5.45;2.80;;;16.70;47.80;;;;;;5043064;28;20497;-48
2023/06/05 06:31:33;;;;;;;5.78;2.67;;;16.80;47.80;;;;;;5043484;28;20069;-44
2023/06/05 06:34:01;;;;;;;5.20;2.70;;;16.80;47.70;;;;;;5045042;28;20075;-45
2023/06/05 06:36:28;;;;;;;4.90;2.75;;;16.80;47.60;;;;;;5043087;28;20057;-50
2023/06/05 06:38:55;;;;;;;5.25;2.50;;;16.90;47.40;;;;;;5042511;28;20056;-51
2023/06/05 06:41:22;;;;;;;10.07;3.08;;;16.90;47.40;;;;;;5044561;28;20053;-47
2023/06/05 06:43:50;;;;;;;3.65;2.50;;;17.00;47.50;;;;;;5041083;28;20116;-48
2023/06/05 06:46:18;;;;;;;5.18;2.22;;;17.00;47.60;;;;;;5044587;28;20485;-46
2023/06/05 06:48:45;;;;;;;5.28;2.45;;;17.10;47.60;;;;;;5042520;28;20056;-50
2023/06/05 06:51:13;;;;;;;6.65;2.53;;;17.20;47.30;;;;;;5044300;28;20923;-50
2023/06/05 06:53:41;;;;;;;5.15;2.85;;;17.20;47.20;;;;;;5042261;28;20424;-50
2023/06/05 06:56:08;;;;;;;4.68;2.70;;;17.30;47.30;;;;;;5045172;28;20055;-50
2023/06/05 06:58:36;;;;;;;5.05;2.40;;;17.40;46.70;;;;;;5044407;28;20060;-52
2023/06/05 07:01:04;;;;;;;6.25;2.78;;;17.40;46.40;;;;;;5041034;28;20048;-49
2023/06/05 07:03:33;;;;;;;4.05;2.70;;;17.50;46.50;;;;;;5043137;28;20053;-46
2023/06/05 07:06:00;;;;;;;4.97;2.90;;;17.50;46.50;;;;;;5042623;28;20053;-49
2023/06/05 07:08:27;;;;;;;6.28;2.38;;;17.60;46.50;;;;;;5041056;28;20508;-49
2023/06/05 07:10:56;;;;;;;7.43;2.55;;;17.70;46.20;;;;;;5043846;28;20057;-48
2023/06/05 07:13:25;;;;;;;8.32;3.05;;;17.70;45.90;;;;;;5041955;28;20079;-47
2023/06/05 07:16:04;;;;;;;4.43;2.75;;;17.80;46.70;;;;;;5042840;28;20053;-46
2023/06/05 07:18:40;;;;;;;6.13;2.40;;;17.80;47.10;;;;;;5052727;28;20068;-50
2023/06/05 07:21:13;;;;;;;6.93;2.35;;;17.90;47.50;;;;;;5052153;28;20061;-53
2023/06/05 07:23:41;;;;;;;4.82;2.35;;;18.00;47.60;;;;;;5040776;28;20497;-52
2023/06/05 07:26:15;;;;;;;3.80;2.30;;;18.10;47.40;;;;;;5042886;28;20053;-50
2023/06/05 07:28:43;;;;;;;7.70;2.85;;;18.10;47.50;;;;;;5044857;28;20048;-47
2023/06/05 07:31:12;;;;;;;6.32;2.30;;;18.10;46.60;;;;;;5042569;28;20057;-48
2023/06/05 07:33:41;;;;;;;4.18;2.10;;;18.20;46.20;;;;;;5043815;28;20059;-46
2023/06/05 07:36:10;;;;;;;2.95;1.90;;;18.30;46.40;;;;;;5041516;28;20132;-48
2023/06/05 07:38:39;;;;;;;2.58;1.88;;;18.40;46.10;;;;;;5043531;28;20056;-46
2023/06/05 07:41:07;;;;;;;4.15;2.35;;;18.40;46.20;;;;;;5044548;28;20412;-46
2023/06/05 07:43:35;;;;;;;5.60;2.03;;;18.50;45.80;;;;;;5043653;28;20507;-52
2023/06/05 07:46:04;;;;;;;3.42;2.17;;;18.60;45.70;;;;;;5041703;28;20053;-50
2023/06/05 07:48:32;;;;;;;4.15;2.22;;;18.60;45.40;;;;;;5043519;28;20060;-45
2023/06/05 07:51:01;;;;;;;6.65;2.35;;;18.70;45.70;;;;;;5042287;28;20053;-47
2023/06/05 07:53:30;;;;;;;7.00;2.20;;;18.70;45.20;;;;;;5042329;28;20404;-53
2023/06/05 07:55:58;;;;;;;3.72;1.98;;;18.80;44.60;;;;;;5041095;28;20049;-50
2023/06/05 07:58:27;;;;;;;4.80;2.10;;;18.90;44.60;;;;;;5042760;28;20393;-49
2023/06/05 08:00:56;;;;;;;3.10;1.92;;;19.00;44.90;;;;;;5043362;28;20072;-47
2023/06/05 08:03:24;;;;;;;3.75;1.92;;;19.00;44.70;;;;;;5042078;28;20629;-49
2023/06/05 08:05:51;;;;;;;4.20;1.80;;;19.10;44.20;;;;;;5044261;28;20053;-50
2023/06/05 08:08:20;;;;;;;5.50;2.10;;;19.20;43.40;;;;;;5041983;28;20057;-51
2023/06/05 08:10:48;;;;;;;5.57;2.28;;;19.30;43.20;;;;;;5041700;28;20514;-54
2023/06/05 08:13:15;;;;;;;2.65;1.67;;;19.30;43.20;;;;;;5043058;28;20056;-49
2023/06/05 08:15:42;;;;;;;5.70;2.47;;;19.40;42.90;;;;;;5042715;28;20052;-51
2023/06/05 08:18:09;;;;;;;3.47;2.10;;;19.50;43.20;;;;;;5041938;28;20052;-47
2023/06/05 08:20:37;;;;;;;6.00;2.05;;;19.50;42.70;;;;;;5043482;28;20060;-46
2023/06/05 08:23:05;;;;;;;4.68;1.98;;;19.60;42.40;;;;;;5041556;28;20064;-49
2023/06/05 08:25:33;;;;;;;4.32;1.98;;;19.70;42.20;;;;;;5040821;28;20049;-49
2023/06/05 08:28:01;;;;;;;6.93;1.75;;;19.70;42.20;;;;;;5040142;28;20057;-50
2023/06/05 08:30:28;;;;;;;5.95;1.98;;;19.80;42.10;;;;;;5040011;28;20052;-53
2023/06/05 08:32:55;;;;;;;5.78;2.10;;;19.90;42.00;;;;;;5041413;28;20492;-44
2023/06/05 08:35:22;;;;;;;6.30;2.13;;;20.00;42.50;;;;;;5039690;28;20057;-45
2023/06/05 08:37:49;;;;;;;8.48;2.50;;;20.00;41.60;;;;;;5041203;28;20056;-49
2023/06/05 08:40:19;;;;;;;5.60;2.20;;;20.10;41.90;;;;;;5040233;28;20049;-44
2023/06/05 08:42:48;;;;;;;4.15;2.10;;;20.20;42.10;;;;;;5039626;28;20084;-48
2023/06/05 08:45:15;;;;;;;3.92;2.00;;;20.20;41.90;;;;;;5039464;28;20404;-43
2023/06/05 08:47:49;;;;;;;5.63;1.98;;;20.30;41.60;;;;;;5036916;28;20041;-50
2023/06/05 08:50:16;;;;;;;;;;;20.40;41.70;;;;;;5040162;28;21349;-50
2023/06/05 08:52:57;;;;;;;5.45;2.15;;;20.50;41.90;;;;;;5109696;27;20640;-47
2023/06/05 08:55:25;;;;;;;4.68;2.42;;;20.60;41.50;;;;;;5111424;28;20054;-44
2023/06/05 08:57:53;;;;;;;8.05;2.50;;;20.70;40.70;;;;;;5113610;27;20705;-49
2023/06/05 09:00:22;;;;;;;7.45;2.15;;;20.70;40.80;;;;;;5115456;28;20126;-49
2023/06/05 09:02:49;;;;;;;4.88;2.20;;;20.80;40.90;;;;;;5114892;28;20044;-54
2023/06/05 09:05:17;;;;;;;3.40;1.77;;;20.90;41.00;;;;;;5114330;28;20051;-53
2023/06/05 09:07:44;;;;;;;2.85;1.90;;;21.00;41.30;;;;;;5114977;28;20790;-51
2023/06/05 09:10:25;;;;;;;7.60;2.20;;;21.00;41.10;;;;;;5115679;28;20051;-54
2023/06/05 09:12:54;;;;;;;4.60;2.13;;;21.20;41.00;;;;;;5114269;27;20043;-43
2023/06/05 09:15:23;;;;;;;3.10;1.90;;;21.30;40.80;;;;;;5109921;28;20052;-38
2023/06/05 09:18:04;;;;;;;6.07;2.58;;;21.30;40.50;;;;;;5115033;28;20059;-43
2023/06/05 09:20:34;;;;;;;3.55;1.73;;;21.40;39.70;;;;;;5107122;28;20043;-44
2023/06/05 09:23:02;;;;;;;8.43;2.42;;;21.50;39.90;;;;;;5114439;27;20442;-41
2023/06/05 09:25:47;;;;;;;10.10;2.72;;;21.50;39.80;;;;;;5111102;28;20076;-43
2023/06/05 09:28:16;;;;;;;3.60;2.20;;;21.60;39.30;;;;;;5113193;28;20483;-41
2023/06/05 09:30:57;;;;;;;6.55;1.90;;;21.70;40.00;;;;;;5114222;27;20468;-46
2023/06/05 09:33:25;;;;;;;6.10;2.22;;;21.80;39.50;;;;;;5115092;28;20502;-44
2023/06/05 09:36:03;;;;;;;3.75;2.00;;;21.90;38.90;;;;;;5112615;27;20415;-43
2023/06/05 09:38:31;;;;;;;7.38;1.92;;;22.00;38.90;;;;;;5114281;27;20062;-43
2023/06/05 09:41:07;;;;;;;4.45;2.22;;;22.10;38.00;;;;;;5109748;28;20487;-43
2023/06/05 09:43:36;;;;;;;9.90;1.92;;;22.10;38.10;;;;;;5112719;27;20078;-43
2023/06/05 09:46:11;;;;;;;3.55;1.90;;;22.20;38.10;;;;;;5112698;28;20051;-44
2023/06/05 09:48:38;;;;;;;4.05;1.98;;;22.20;37.90;;;;;;5111152;27;20052;-41
2023/06/05 09:51:11;;;;;;;8.13;2.33;;;22.30;37.40;;;;;;5112406;27;20062;-44
2023/06/05 09:53:44;;;;;;;3.85;1.90;;;22.40;36.80;;;;;;5110373;28;20047;-44
2023/06/05 09:56:15;;;;;;;4.32;2.30;;;22.40;37.10;;;;;;5109405;27;20503;-43
2023/06/05 09:58:46;;;;;;;5.93;2.10;;;22.50;37.10;;;;;;5115701;28;20055;-40
2023/06/05 10:01:17;;;;;;;2.58;1.52;;;22.60;36.60;;;;;;5113324;27;21102;-47
2023/06/05 10:03:49;;;;;;;4.95;1.83;;;22.60;36.10;;;;;;5104726;28;20067;-42
2023/06/05 10:06:23;;;;;;;5.63;2.10;;;22.70;36.50;;;;;;5100572;28;20043;-41
2023/06/05 10:08:52;;;;;;;2.97;1.80;;;22.70;35.70;;;;;;5104698;28;20059;-42
2023/06/05 10:11:23;;;;;;;4.90;1.73;;;22.80;35.70;;;;;;5104095;28;20048;-43
2023/06/05 10:13:51;;;;;;;3.67;1.90;;;22.90;36.20;;;;;;5098280;28;20056;-44
2023/06/05 10:16:19;;;;;;;3.30;1.75;;;23.00;37.30;;;;;;5101328;28;20062;-46
2023/06/05 10:18:47;;;;;;;3.13;1.60;;;23.10;37.40;;;;;;5097176;28;20071;-41
2023/06/05 10:21:16;;;;;;;3.35;1.63;;;23.20;37.10;;;;;;5094756;28;20055;-43
2023/06/05 10:23:48;;;;;;;5.35;2.08;;;23.30;37.00;;;;;;5095219;27;20823;-40
2023/06/05 10:26:32;;;;;;;4.30;1.88;;;23.30;37.30;;;;;;5098629;28;20051;-45
2023/06/05 10:29:12;;;;;;;2.55;1.85;;;23.40;35.90;;;;;;5103212;27;20055;-39
2023/06/05 10:31:48;;;;;;;2.53;1.83;;;23.40;34.90;;;;;;5101101;28;20060;-47
2023/06/05 10:34:26;;;;;;;8.95;2.00;;;23.50;35.20;;;;;;5102441;28;20055;-39
2023/06/05 10:37:36;;;;;;;4.70;1.88;;;23.60;34.80;;;;;;5097047;28;20047;-44
2023/06/05 10:40:05;;;;;;;2.38;1.70;;;23.70;33.80;;;;;;5040014;28;20053;-40
2023/06/05 10:42:34;;;;;;;7.40;2.05;;;23.70;33.40;;;;;;5094113;28;20044;-45
2023/06/05 10:45:01;;;;;;;3.03;1.70;;;23.80;33.50;;;;;;5103064;28;20060;-44
2023/06/05 10:47:50;;;;;;;4.15;1.60;;;23.80;33.90;;;;;;5099368;28;20055;-39
2023/06/05 10:50:28;;;;;;;4.20;1.85;;;23.90;34.60;;;;;;5099206;28;20062;-46
2023/06/05 10:52:57;;;;;;;4.45;1.83;;;24.00;34.70;;;;;;5050426;28;20052;-42
2023/06/05 10:55:26;;;;;;;3.88;1.83;;;24.10;34.00;;;;;;5057516;28;20052;-42
2023/06/05 10:58:17;;;;;;;3.00;1.85;;;24.10;33.80;;;;;;5057641;28;20057;-41
2023/06/05 11:01:20;;;;;;;2.33;1.65;;;24.10;33.70;;;;;;5060800;28;20056;-46
2023/06/05 11:03:57;;;;;;;3.42;1.80;;;24.20;33.80;;;;;;5058368;28;20045;-39
2023/06/05 11:06:25;;;;;;;4.22;2.00;;;24.30;33.50;;;;;;5059891;28;20052;-41
2023/06/05 11:09:09;;;;;;;2.78;1.73;;;24.30;32.30;;;;;;5055751;28;20064;-42
2023/06/05 11:11:59;;;;;;;3.88;1.90;;;24.30;33.20;;;;;;5060221;28;20061;-43
2023/06/05 11:14:46;;;;;;;2.35;1.60;;;24.40;33.10;;;;;;5057682;28;20119;-37
2023/06/05 11:17:30;;;;;;;3.10;1.70;;;24.40;32.60;;;;;;5058078;28;20603;-43
2023/06/05 11:19:57;;;;;;;5.85;2.42;;;24.50;32.90;;;;;;5061733;28;20049;-47
2023/06/05 11:22:25;;;;;;;2.45;1.90;;;24.50;33.00;;;;;;5057666;28;20064;-42
2023/06/05 11:25:36;;;;;;;2.63;1.63;;;24.50;33.10;;;;;;5056015;28;20056;-46
2023/06/05 11:28:05;;;;;;;4.38;1.70;;;24.60;32.80;;;;;;5046935;28;20495;-43
2023/06/05 11:30:39;;;;;;;2.25;1.63;;;24.60;32.70;;;;;;5055837;28;20059;-46
2023/06/05 11:33:12;;;;;;;3.13;1.80;;;24.60;32.60;;;;;;5059217;28;20048;-45
2023/06/05 11:35:40;;;;;;;3.08;1.58;;;24.70;33.30;;;;;;5062012;28;20063;-47
2023/06/05 11:38:11;;;;;;;3.85;2.03;;;24.70;31.70;;;;;;5060557;28;20056;-42
2023/06/05 11:40:39;;;;;;;1.80;1.50;;;24.80;32.30;;;;;;5060472;28;20048;-41
2023/06/05 11:43:07;;;;;;;3.28;1.77;;;24.80;32.50;;;;;;5056768;28;20412;-46
2023/06/05 11:45:37;;;;;;;7.32;2.22;;;24.90;32.30;;;;;;5059902;28;20053;-44
2023/06/05 11:48:07;;;;;;;2.15;1.65;;;24.90;31.90;;;;;;5057324;28;20056;-38
2023/06/05 11:50:35;;;;;;;6.13;1.70;;;25.00;32.20;;;;;;5063384;28;20195;-39
2023/06/05 11:53:06;;;;;;;4.18;1.85;;;25.00;31.20;;;;;;5096646;28;20048;-42
2023/06/05 11:55:43;;;;;;;4.78;1.80;;;25.00;29.70;;;;;;5101155;28;20059;-39
2023/06/05 11:58:11;;;;;;;2.65;1.90;;;25.00;29.30;;;;;;5100187;28;20055;-38
2023/06/05 12:00:39;;;;;;;2.72;1.80;;;25.10;30.20;;;;;;5100194;28;20060;-43
2023/06/05 12:03:18;;;;;;;5.55;1.85;;;25.20;30.50;;;;;;5098829;28;20054;-43
2023/06/05 12:05:45;;;;;;;2.00;1.80;;;25.20;29.50;;;;;;5100766;28;20060;-44
2023/06/05 12:08:26;;;;;;;3.10;2.10;;;25.30;29.70;;;;;;5094691;28;20063;-45
2023/06/05 12:10:53;;;;;;;2.53;1.60;;;25.30;28.60;;;;;;5097537;28;20055;-43
2023/06/05 12:13:20;;;;;;;3.67;1.77;;;25.40;29.00;;;;;;5101592;28;20065;-39
2023/06/05 12:16:01;;;;;;;2.63;1.73;;;25.40;29.60;;;;;;5098368;28;20406;-42
2023/06/05 12:18:33;;;;;;;8.18;1.70;;;25.50;29.50;;;;;;5099184;28;20050;-43
2023/06/05 12:21:00;;;;;;;4.93;2.25;;;25.60;29.60;;;;;;5096118;28;20059;-37
2023/06/05 12:23:30;;;;;;;5.45;2.10;;;25.60;29.00;;;;;;5097656;28;20236;-43
2023/06/05 12:26:02;;;;;;;3.58;1.90;;;25.60;28.90;;;;;;5095438;28;20059;-41
2023/06/05 12:28:31;;;;;;;3.50;2.00;;;25.70;28.80;;;;;;5091748;28;20056;-42
2023/06/05 12:30:58;;;;;;;2.90;1.50;;;25.80;29.30;;;;;;5097114;28;20067;-39
2023/06/05 12:33:28;;;;;;;3.13;1.70;;;25.90;29.30;;;;;;5092862;28;20414;-43
2023/06/05 12:36:05;;;;;;;2.95;1.83;;;25.90;29.20;;;;;;5096922;28;20071;-40
2023/06/05 12:38:38;;;;;;;4.65;1.63;;;26.00;29.30;;;;;;5095365;27;20491;-43
2023/06/05 12:41:07;;;;;;;2.03;1.42;;;26.10;28.80;;;;;;5098180;28;20055;-38
2023/06/05 12:43:34;;;;;;;3.40;2.10;;;26.10;29.40;;;;;;5097097;28;20403;-42
2023/06/05 12:46:02;;;;;;;2.08;1.63;;;26.10;27.70;;;;;;5098853;28;20046;-50
2023/06/05 12:48:31;;;;;;;2.58;1.80;;;26.10;28.20;;;;;;5096842;28;20048;-51
2023/06/05 12:50:59;;;;;;;3.45;1.90;;;26.20;27.90;;;;;;5097931;28;20063;-44
2023/06/05 12:53:26;;;;;;;3.42;2.00;;;26.20;26.90;;;;;;5098401;28;20406;-44
2023/06/05 12:55:53;;;;;;;6.68;2.13;;;26.20;27.80;;;;;;5096878;28;20055;-43
2023/06/05 12:58:21;;;;;;;3.40;1.50;;;26.30;28.20;;;;;;5101335;28;20066;-50
2023/06/05 13:00:49;;;;;;;3.08;1.83;;;26.30;28.30;;;;;;5097836;28;20060;-48